Auke Bay, AK

12:42 AM AKDT on October 23, 2014 (GMT -0800)
Auke Bay | Change Station
CLOSE
Current Station
Personal Weather Station
Location: Juneau, AK
Elevation: 82 ft
Nearby Weather Stations

Elev 82 ft 58.38 °N, 134.66 °W | Updated 51 seconds ago

Fog
Fog
35.4 °F
Feels Like 35 °F
N
0.0
Wind Variable Wind from North
Gusts 0.0 mph

Today
High -- | Low -- °F
--% Chance of Precip.
Yesterday
High -- | Low -- °F
Precip. -- in
7:53 AM 5:31 PM
Waning Crescent, 0% visible
Pressure 29.42 in
Visibility 0.2 miles
Clouds
Windchill 35 °F
Dew Point 35 °F
Humidity 100%
Rainfall 0.00 in
Snow Depth Not available.
UV Not available.
Pollen Not available.
Air Quality Not available.
Flu Activity Sporadic
SPECI PAJN 230807Z 00000KT 1/4SM R08/1800V4000FT FG VV001 01/01 A2942 RMK AO2 T00110011

More Conditions Fewer Conditions

Pressure 29.42 in
Visibility 0.2 miles
Clouds
Windchill 35 °F
Dew Point 35 °F
Humidity 100%
Rainfall 0.00 in
Snow Depth Not available.
UV Not available.
Pollen Not available.
Air Quality Not available.
Flu Activity Sporadic
SPECI PAJN 230807Z 00000KT 1/4SM R08/1800V4000FT FG VV001 01/01 A2942 RMK AO2 T00110011

More Conditions Fewer Conditions

10-Day Weather Forecast

Almanac

Astronomy

Oct. 23, 2014 Rise Set
Actual Time 7:53 AM AKDT 5:31 PM AKDT
Civil Twilight 7:12 AM AKDT 6:12 PM AKDT
Nautical Twilight 6:25 AM AKDT 6:58 PM AKDT
Astronomical Twilight 5:39 AM AKDT 7:44 PM AKDT
Moon 7:38 AM AKDT 5:35 PM AKDT
Length of Visible Light 11h 00m
Length of Day
9h 37m
Tomorrow will be 4m 55s shorter.
Waning Crescent, 0% of the Moon is Illuminated
Today
Waning Crescent
Oct 23
New
Oct 30
First Quarter
Nov 6
Full
Nov 14
Last Quarter

Today's Extremes

State Highs State Lows

Community

WunderPhotos

Upload Photos

1,764,197 photos uploaded!

Nearby

Snow Depth

Station Depth Elevation
Long Lake 0 in 820 ft
Upper Tsaina River 8 in 1750 ft
Moraine 0 in 2100 ft
Granite Creek 6 in 1240 ft
Grandview 3 in 1100 ft

Earthquake Activity

City Distance Mag. Time & Date
No recent earthquake activity has been reported nearby.
Minimum magnitude displayed is 2.5.

Coastal Water Temperatures

Place Temperature
No Stations Reporting

Nearby Weather Stations